sensor_id;sensor_type;location;lat;lon;timestamp;pressure;altitude;pressure_sealevel;temperature
56286;BMP180;42191;47.562;9.686;2022-08-01T00:00:47;97012.00;;;26.90
56286;BMP180;42191;47.562;9.686;2022-08-01T00:03:13;97018.00;;;26.90
56286;BMP180;42191;47.562;9.686;2022-08-01T00:05:39;97020.00;;;26.90
56286;BMP180;42191;47.562;9.686;2022-08-01T00:08:05;97011.00;;;26.80
56286;BMP180;42191;47.562;9.686;2022-08-01T00:10:31;97014.00;;;26.80
56286;BMP180;42191;47.562;9.686;2022-08-01T00:12:57;97016.00;;;26.70
56286;BMP180;42191;47.562;9.686;2022-08-01T00:15:23;97009.00;;;26.70
56286;BMP180;42191;47.562;9.686;2022-08-01T00:17:49;97007.00;;;26.60
56286;BMP180;42191;47.562;9.686;2022-08-01T00:20:15;97016.00;;;26.60
56286;BMP180;42191;47.562;9.686;2022-08-01T00:22:42;97011.00;;;26.50
56286;BMP180;42191;47.562;9.686;2022-08-01T00:25:08;97010.00;;;26.50
56286;BMP180;42191;47.562;9.686;2022-08-01T00:27:34;97016.00;;;26.40
56286;BMP180;42191;47.562;9.686;2022-08-01T00:30:00;97022.00;;;26.30
56286;BMP180;42191;47.562;9.686;2022-08-01T00:32:26;97017.00;;;26.30
56286;BMP180;42191;47.562;9.686;2022-08-01T00:34:52;97021.00;;;26.20
56286;BMP180;42191;47.562;9.686;2022-08-01T00:37:18;97020.00;;;26.10
56286;BMP180;42191;47.562;9.686;2022-08-01T00:39:45;97032.00;;;26.10
56286;BMP180;42191;47.562;9.686;2022-08-01T00:42:12;97024.00;;;26.00
56286;BMP180;42191;47.562;9.686;2022-08-01T00:44:39;97022.00;;;26.00
56286;BMP180;42191;47.562;9.686;2022-08-01T00:47:06;97017.00;;;25.90
56286;BMP180;42191;47.562;9.686;2022-08-01T00:49:33;97023.00;;;25.90
56286;BMP180;42191;47.562;9.686;2022-08-01T00:51:59;97021.00;;;25.80
56286;BMP180;42191;47.562;9.686;2022-08-01T00:54:26;97025.00;;;25.80
56286;BMP180;42191;47.562;9.686;2022-08-01T00:56:54;97022.00;;;25.80
56286;BMP180;42191;47.562;9.686;2022-08-01T00:59:22;97022.00;;;25.80
56286;BMP180;42191;47.562;9.686;2022-08-01T01:01:49;97019.00;;;25.80
56286;BMP180;42191;47.562;9.686;2022-08-01T01:04:15;97029.00;;;25.80
56286;BMP180;42191;47.562;9.686;2022-08-01T01:09:36;97023.00;;;25.80
56286;BMP180;42191;47.562;9.686;2022-08-01T01:12:36;97030.00;;;25.80
56286;BMP180;42191;47.562;9.686;2022-08-01T01:18:00;97024.00;;;25.70
56286;BMP180;42191;47.562;9.686;2022-08-01T01:20:38;97029.00;;;25.70
56286;BMP180;42191;47.562;9.686;2022-08-01T01:29:17;97038.00;;;25.60
56286;BMP180;42191;47.562;9.686;2022-08-01T01:32:04;97034.00;;;25.50
56286;BMP180;42191;47.562;9.686;2022-08-01T01:34:34;97036.00;;;25.50
56286;BMP180;42191;47.562;9.686;2022-08-01T01:37:02;97032.00;;;25.50
56286;BMP180;42191;47.562;9.686;2022-08-01T01:39:31;97024.00;;;25.40
56286;BMP180;42191;47.562;9.686;2022-08-01T01:41:59;97039.00;;;25.40
56286;BMP180;42191;47.562;9.686;2022-08-01T01:44:26;97036.00;;;25.40
56286;BMP180;42191;47.562;9.686;2022-08-01T01:46:54;97038.00;;;25.40
56286;BMP180;42191;47.562;9.686;2022-08-01T01:49:24;97031.00;;;25.30
56286;BMP180;42191;47.562;9.686;2022-08-01T01:51:54;97041.00;;;25.30
56286;BMP180;42191;47.562;9.686;2022-08-01T01:54:24;97030.00;;;25.30
56286;BMP180;42191;47.562;9.686;2022-08-01T01:56:59;97029.00;;;25.30
56286;BMP180;42191;47.562;9.686;2022-08-01T01:59:30;97040.00;;;25.30
56286;BMP180;42191;47.562;9.686;2022-08-01T02:01:59;97035.00;;;25.30
56286;BMP180;42191;47.562;9.686;2022-08-01T02:04:27;97033.00;;;25.20
56286;BMP180;42191;47.562;9.686;2022-08-01T02:06:54;97030.00;;;25.20
56286;BMP180;42191;47.562;9.686;2022-08-01T02:09:22;97039.00;;;25.20
56286;BMP180;42191;47.562;9.686;2022-08-01T02:11:49;97038.00;;;25.20
56286;BMP180;42191;47.562;9.686;2022-08-01T02:14:18;97035.00;;;25.10
56286;BMP180;42191;47.562;9.686;2022-08-01T02:16:48;97030.00;;;25.10
56286;BMP180;42191;47.562;9.686;2022-08-01T02:19:18;97016.00;;;25.00
56286;BMP180;42191;47.562;9.686;2022-08-01T02:22:01;97021.00;;;25.00
56286;BMP180;42191;47.562;9.686;2022-08-01T02:26:59;97034.00;;;24.90
56286;BMP180;42191;47.562;9.686;2022-08-01T02:29:54;97029.00;;;24.90
56286;BMP180;42191;47.562;9.686;2022-08-01T02:32:40;97026.00;;;24.90
56286;BMP180;42191;47.562;9.686;2022-08-01T02:35:11;97026.00;;;24.80
56286;BMP180;42191;47.562;9.686;2022-08-01T02:37:39;97028.00;;;24.80
56286;BMP180;42191;47.562;9.686;2022-08-01T02:40:07;97027.00;;;24.80
56286;BMP180;42191;47.562;9.686;2022-08-01T02:42:35;97031.00;;;24.80
56286;BMP180;42191;47.562;9.686;2022-08-01T02:45:05;97025.00;;;24.70
56286;BMP180;42191;47.562;9.686;2022-08-01T02:47:34;97024.00;;;24.70
56286;BMP180;42191;47.562;9.686;2022-08-01T02:50:02;97016.00;;;24.70
56286;BMP180;42191;47.562;9.686;2022-08-01T02:52:30;97023.00;;;24.70
56286;BMP180;42191;47.562;9.686;2022-08-01T02:54:58;97034.00;;;24.60
56286;BMP180;42191;47.562;9.686;2022-08-01T02:57:25;97034.00;;;24.60
56286;BMP180;42191;47.562;9.686;2022-08-01T02:59:53;97032.00;;;24.60
56286;BMP180;42191;47.562;9.686;2022-08-01T03:02:21;97030.00;;;24.50
56286;BMP180;42191;47.562;9.686;2022-08-01T03:04:49;97034.00;;;24.50
56286;BMP180;42191;47.562;9.686;2022-08-01T03:07:17;97027.00;;;24.50
56286;BMP180;42191;47.562;9.686;2022-08-01T03:09:46;97035.00;;;24.50
56286;BMP180;42191;47.562;9.686;2022-08-01T03:12:15;97025.00;;;24.40
56286;BMP180;42191;47.562;9.686;2022-08-01T03:14:44;97019.00;;;24.40
56286;BMP180;42191;47.562;9.686;2022-08-01T03:17:11;97022.00;;;24.40
56286;BMP180;42191;47.562;9.686;2022-08-01T03:19:39;97022.00;;;24.40
56286;BMP180;42191;47.562;9.686;2022-08-01T03:22:08;97020.00;;;24.40
56286;BMP180;42191;47.562;9.686;2022-08-01T03:24:36;97023.00;;;24.40
56286;BMP180;42191;47.562;9.686;2022-08-01T03:27:05;97029.00;;;24.30
56286;BMP180;42191;47.562;9.686;2022-08-01T03:29:32;97034.00;;;24.30
56286;BMP180;42191;47.562;9.686;2022-08-01T03:32:00;97029.00;;;24.30
56286;BMP180;42191;47.562;9.686;2022-08-01T03:34:28;97036.00;;;24.30
56286;BMP180;42191;47.562;9.686;2022-08-01T03:37:43;97041.00;;;24.30
56286;BMP180;42191;47.562;9.686;2022-08-01T03:40:09;97035.00;;;24.30
56286;BMP180;42191;47.562;9.686;2022-08-01T03:42:46;97038.00;;;24.20
56286;BMP180;42191;47.562;9.686;2022-08-01T03:45:21;97043.00;;;24.20
56286;BMP180;42191;47.562;9.686;2022-08-01T03:47:51;97046.00;;;24.20
56286;BMP180;42191;47.562;9.686;2022-08-01T03:50:20;97048.00;;;24.20
56286;BMP180;42191;47.562;9.686;2022-08-01T03:52:49;97052.00;;;24.20
56286;BMP180;42191;47.562;9.686;2022-08-01T03:55:16;97045.00;;;24.20
56286;BMP180;42191;47.562;9.686;2022-08-01T03:57:43;97052.00;;;24.20
56286;BMP180;42191;47.562;9.686;2022-08-01T04:00:10;97049.00;;;24.20
56286;BMP180;42191;47.562;9.686;2022-08-01T04:02:37;97042.00;;;24.20
56286;BMP180;42191;47.562;9.686;2022-08-01T04:05:04;97046.00;;;24.20
56286;BMP180;42191;47.562;9.686;2022-08-01T04:07:32;97050.00;;;24.10
56286;BMP180;42191;47.562;9.686;2022-08-01T04:09:58;97053.00;;;24.10
56286;BMP180;42191;47.562;9.686;2022-08-01T04:12:24;97039.00;;;24.10
56286;BMP180;42191;47.562;9.686;2022-08-01T04:14:51;97039.00;;;24.10
56286;BMP180;42191;47.562;9.686;2022-08-01T04:17:17;97048.00;;;24.10
56286;BMP180;42191;47.562;9.686;2022-08-01T04:19:44;97042.00;;;24.10
56286;BMP180;42191;47.562;9.686;2022-08-01T04:22:13;97055.00;;;24.20
56286;BMP180;42191;47.562;9.686;2022-08-01T04:24:40;97050.00;;;24.20
56286;BMP180;42191;47.562;9.686;2022-08-01T04:27:12;97053.00;;;24.20
56286;BMP180;42191;47.562;9.686;2022-08-01T04:29:39;97046.00;;;24.20
56286;BMP180;42191;47.562;9.686;2022-08-01T04:32:08;97054.00;;;24.20
56286;BMP180;42191;47.562;9.686;2022-08-01T04:34:39;97060.00;;;24.20
56286;BMP180;42191;47.562;9.686;2022-08-01T04:37:09;97055.00;;;24.30
56286;BMP180;42191;47.562;9.686;2022-08-01T04:39:37;97061.00;;;24.30
56286;BMP180;42191;47.562;9.686;2022-08-01T04:42:04;97051.00;;;24.40
56286;BMP180;42191;47.562;9.686;2022-08-01T04:44:32;97059.00;;;24.40
56286;BMP180;42191;47.562;9.686;2022-08-01T04:47:00;97057.00;;;24.50
56286;BMP180;42191;47.562;9.686;2022-08-01T04:49:33;97055.00;;;24.60
56286;BMP180;42191;47.562;9.686;2022-08-01T04:51:59;97069.00;;;24.60
56286;BMP180;42191;47.562;9.686;2022-08-01T04:54:30;97065.00;;;24.70
56286;BMP180;42191;47.562;9.686;2022-08-01T04:56:56;97067.00;;;24.80
56286;BMP180;42191;47.562;9.686;2022-08-01T04:59:33;97065.00;;;24.80
56286;BMP180;42191;47.562;9.686;2022-08-01T05:02:15;97066.00;;;24.90
56286;BMP180;42191;47.562;9.686;2022-08-01T05:04:44;97069.00;;;24.90
56286;BMP180;42191;47.562;9.686;2022-08-01T05:07:11;97075.00;;;24.90
56286;BMP180;42191;47.562;9.686;2022-08-01T05:09:38;97069.00;;;25.00
56286;BMP180;42191;47.562;9.686;2022-08-01T05:12:06;97068.00;;;25.00
56286;BMP180;42191;47.562;9.686;2022-08-01T05:14:32;97071.00;;;25.00
56286;BMP180;42191;47.562;9.686;2022-08-01T05:17:05;97069.00;;;25.00
56286;BMP180;42191;47.562;9.686;2022-08-01T05:19:32;97070.00;;;25.10
56286;BMP180;42191;47.562;9.686;2022-08-01T05:22:03;97077.00;;;25.10
56286;BMP180;42191;47.562;9.686;2022-08-01T05:24:31;97082.00;;;25.10
56286;BMP180;42191;47.562;9.686;2022-08-01T05:26:58;97078.00;;;25.10
56286;BMP180;42191;47.562;9.686;2022-08-01T05:29:25;97084.00;;;25.20
56286;BMP180;42191;47.562;9.686;2022-08-01T05:31:52;97079.00;;;25.20
56286;BMP180;42191;47.562;9.686;2022-08-01T05:34:18;97083.00;;;25.30
56286;BMP180;42191;47.562;9.686;2022-08-01T05:36:45;97081.00;;;25.30
56286;BMP180;42191;47.562;9.686;2022-08-01T05:39:11;97088.00;;;25.40
56286;BMP180;42191;47.562;9.686;2022-08-01T05:41:38;97079.00;;;25.40
56286;BMP180;42191;47.562;9.686;2022-08-01T05:44:05;97083.00;;;25.50
56286;BMP180;42191;47.562;9.686;2022-08-01T05:46:31;97082.00;;;25.50
56286;BMP180;42191;47.562;9.686;2022-08-01T05:48:58;97085.00;;;25.50
56286;BMP180;42191;47.562;9.686;2022-08-01T05:51:25;97087.00;;;25.50
56286;BMP180;42191;47.562;9.686;2022-08-01T05:53:52;97096.00;;;25.60
56286;BMP180;42191;47.562;9.686;2022-08-01T05:56:19;97086.00;;;25.60
56286;BMP180;42191;47.562;9.686;2022-08-01T05:58:45;97085.00;;;25.60
56286;BMP180;42191;47.562;9.686;2022-08-01T06:01:11;97091.00;;;25.60
56286;BMP180;42191;47.562;9.686;2022-08-01T06:03:37;97084.00;;;25.70
56286;BMP180;42191;47.562;9.686;2022-08-01T06:06:03;97095.00;;;25.70
56286;BMP180;42191;47.562;9.686;2022-08-01T06:08:30;97091.00;;;25.80
56286;BMP180;42191;47.562;9.686;2022-08-01T06:10:57;97090.00;;;25.80
56286;BMP180;42191;47.562;9.686;2022-08-01T06:13:23;97088.00;;;25.80
56286;BMP180;42191;47.562;9.686;2022-08-01T06:15:50;97092.00;;;25.90
56286;BMP180;42191;47.562;9.686;2022-08-01T06:18:16;97098.00;;;25.90
56286;BMP180;42191;47.562;9.686;2022-08-01T06:20:42;97096.00;;;26.00
56286;BMP180;42191;47.562;9.686;2022-08-01T06:23:09;97099.00;;;26.00
56286;BMP180;42191;47.562;9.686;2022-08-01T06:25:35;97094.00;;;26.10
56286;BMP180;42191;47.562;9.686;2022-08-01T06:28:01;97101.00;;;26.10
56286;BMP180;42191;47.562;9.686;2022-08-01T06:30:28;97098.00;;;26.20
56286;BMP180;42191;47.562;9.686;2022-08-01T06:32:54;97091.00;;;26.30
56286;BMP180;42191;47.562;9.686;2022-08-01T06:35:24;97093.00;;;26.30
56286;BMP180;42191;47.562;9.686;2022-08-01T06:37:50;97090.00;;;26.40
56286;BMP180;42191;47.562;9.686;2022-08-01T06:40:16;97091.00;;;26.40
56286;BMP180;42191;47.562;9.686;2022-08-01T06:42:44;97098.00;;;26.50
56286;BMP180;42191;47.562;9.686;2022-08-01T06:45:13;97085.00;;;26.50
56286;BMP180;42191;47.562;9.686;2022-08-01T06:47:40;97099.00;;;26.50
56286;BMP180;42191;47.562;9.686;2022-08-01T06:50:08;97097.00;;;26.60
56286;BMP180;42191;47.562;9.686;2022-08-01T06:52:34;97103.00;;;26.60
56286;BMP180;42191;47.562;9.686;2022-08-01T06:55:01;97092.00;;;26.70
56286;BMP180;42191;47.562;9.686;2022-08-01T06:57:27;97097.00;;;26.70
56286;BMP180;42191;47.562;9.686;2022-08-01T06:59:54;97098.00;;;26.80
56286;BMP180;42191;47.562;9.686;2022-08-01T07:02:20;97097.00;;;26.80
56286;BMP180;42191;47.562;9.686;2022-08-01T07:04:46;97101.00;;;26.80
56286;BMP180;42191;47.562;9.686;2022-08-01T07:07:12;97092.00;;;26.80
56286;BMP180;42191;47.562;9.686;2022-08-01T07:09:38;97100.00;;;26.90
56286;BMP180;42191;47.562;9.686;2022-08-01T07:12:07;97093.00;;;26.90
56286;BMP180;42191;47.562;9.686;2022-08-01T07:14:33;97096.00;;;26.90
56286;BMP180;42191;47.562;9.686;2022-08-01T07:16:59;97100.00;;;26.90
56286;BMP180;42191;47.562;9.686;2022-08-01T07:19:26;97093.00;;;27.00
56286;BMP180;42191;47.562;9.686;2022-08-01T07:21:53;97097.00;;;27.00
56286;BMP180;42191;47.562;9.686;2022-08-01T07:24:19;97095.00;;;27.00
56286;BMP180;42191;47.562;9.686;2022-08-01T07:26:47;97091.00;;;27.10
56286;BMP180;42191;47.562;9.686;2022-08-01T07:29:13;97083.00;;;27.10
56286;BMP180;42191;47.562;9.686;2022-08-01T07:31:40;97091.00;;;27.10
56286;BMP180;42191;47.562;9.686;2022-08-01T07:34:06;97093.00;;;27.10
56286;BMP180;42191;47.562;9.686;2022-08-01T07:36:32;97083.00;;;27.10
56286;BMP180;42191;47.562;9.686;2022-08-01T07:38:58;97084.00;;;27.20
56286;BMP180;42191;47.562;9.686;2022-08-01T07:41:24;97087.00;;;27.20
56286;BMP180;42191;47.562;9.686;2022-08-01T07:43:50;97087.00;;;27.20
56286;BMP180;42191;47.562;9.686;2022-08-01T07:46:16;97079.00;;;27.20
56286;BMP180;42191;47.562;9.686;2022-08-01T07:48:43;97083.00;;;27.30
56286;BMP180;42191;47.562;9.686;2022-08-01T07:51:09;97074.00;;;27.30
56286;BMP180;42191;47.562;9.686;2022-08-01T07:53:36;97081.00;;;27.30
56286;BMP180;42191;47.562;9.686;2022-08-01T07:56:03;97073.00;;;27.40
56286;BMP180;42191;47.562;9.686;2022-08-01T07:58:32;97077.00;;;27.40
56286;BMP180;42191;47.562;9.686;2022-08-01T08:00:58;97084.00;;;27.40
56286;BMP180;42191;47.562;9.686;2022-08-01T08:03:24;97077.00;;;27.50
56286;BMP180;42191;47.562;9.686;2022-08-01T08:05:50;97081.00;;;27.50
56286;BMP180;42191;47.562;9.686;2022-08-01T08:08:17;97079.00;;;27.60
56286;BMP180;42191;47.562;9.686;2022-08-01T08:10:44;97077.00;;;27.60
56286;BMP180;42191;47.562;9.686;2022-08-01T08:13:10;97077.00;;;27.60
56286;BMP180;42191;47.562;9.686;2022-08-01T08:15:36;97071.00;;;27.70
56286;BMP180;42191;47.562;9.686;2022-08-01T08:18:05;97067.00;;;27.70
56286;BMP180;42191;47.562;9.686;2022-08-01T08:20:32;97074.00;;;27.70
56286;BMP180;42191;47.562;9.686;2022-08-01T08:22:58;97069.00;;;27.80
56286;BMP180;42191;47.562;9.686;2022-08-01T08:25:25;97064.00;;;27.80
56286;BMP180;42191;47.562;9.686;2022-08-01T08:27:51;97079.00;;;27.80
56286;BMP180;42191;47.562;9.686;2022-08-01T08:30:18;97074.00;;;27.90
56286;BMP180;42191;47.562;9.686;2022-08-01T08:32:44;97075.00;;;27.90
56286;BMP180;42191;47.562;9.686;2022-08-01T08:35:10;97065.00;;;27.90
56286;BMP180;42191;47.562;9.686;2022-08-01T08:37:37;97068.00;;;27.90
56286;BMP180;42191;47.562;9.686;2022-08-01T08:40:04;97071.00;;;28.00
56286;BMP180;42191;47.562;9.686;2022-08-01T08:42:31;97067.00;;;28.00
56286;BMP180;42191;47.562;9.686;2022-08-01T08:44:57;97069.00;;;28.00
56286;BMP180;42191;47.562;9.686;2022-08-01T08:47:24;97066.00;;;28.10
56286;BMP180;42191;47.562;9.686;2022-08-01T08:49:53;97064.00;;;28.10
56286;BMP180;42191;47.562;9.686;2022-08-01T08:52:22;97067.00;;;28.10
56286;BMP180;42191;47.562;9.686;2022-08-01T08:54:50;97057.00;;;28.10
56286;BMP180;42191;47.562;9.686;2022-08-01T08:57:19;97060.00;;;28.20
56286;BMP180;42191;47.562;9.686;2022-08-01T08:59:46;97059.00;;;28.20
56286;BMP180;42191;47.562;9.686;2022-08-01T09:02:12;97062.00;;;28.20
56286;BMP180;42191;47.562;9.686;2022-08-01T09:04:38;97058.00;;;28.30
56286;BMP180;42191;47.562;9.686;2022-08-01T09:07:06;97061.00;;;28.30
56286;BMP180;42191;47.562;9.686;2022-08-01T09:09:34;97057.00;;;28.30
56286;BMP180;42191;47.562;9.686;2022-08-01T09:12:00;97063.00;;;28.40
56286;BMP180;42191;47.562;9.686;2022-08-01T09:14:27;97059.00;;;28.40
56286;BMP180;42191;47.562;9.686;2022-08-01T09:17:09;97056.00;;;28.40
56286;BMP180;42191;47.562;9.686;2022-08-01T09:19:43;97049.00;;;28.40
56286;BMP180;42191;47.562;9.686;2022-08-01T09:22:15;97051.00;;;28.50
56286;BMP180;42191;47.562;9.686;2022-08-01T09:27:23;97057.00;;;28.50
56286;BMP180;42191;47.562;9.686;2022-08-01T09:29:52;97062.00;;;28.60
56286;BMP180;42191;47.562;9.686;2022-08-01T09:32:19;97063.00;;;28.60
56286;BMP180;42191;47.562;9.686;2022-08-01T09:34:45;97055.00;;;28.60
56286;BMP180;42191;47.562;9.686;2022-08-01T09:37:12;97059.00;;;28.60
56286;BMP180;42191;47.562;9.686;2022-08-01T09:39:43;97057.00;;;28.60
56286;BMP180;42191;47.562;9.686;2022-08-01T09:42:25;97050.00;;;28.60
56286;BMP180;42191;47.562;9.686;2022-08-01T09:44:52;97059.00;;;28.60
56286;BMP180;42191;47.562;9.686;2022-08-01T09:47:19;97054.00;;;28.70
56286;BMP180;42191;47.562;9.686;2022-08-01T09:49:56;97049.00;;;28.70
56286;BMP180;42191;47.562;9.686;2022-08-01T09:52:26;97051.00;;;28.70
56286;BMP180;42191;47.562;9.686;2022-08-01T09:54:59;97048.00;;;28.70
56286;BMP180;42191;47.562;9.686;2022-08-01T09:57:26;97044.00;;;28.80
56286;BMP180;42191;47.562;9.686;2022-08-01T09:59:58;97042.00;;;28.80
56286;BMP180;42191;47.562;9.686;2022-08-01T10:02:33;97038.00;;;28.90
56286;BMP180;42191;47.562;9.686;2022-08-01T10:05:01;97036.00;;;28.90
56286;BMP180;42191;47.562;9.686;2022-08-01T10:07:28;97037.00;;;29.00
56286;BMP180;42191;47.562;9.686;2022-08-01T10:09:54;97029.00;;;29.00
56286;BMP180;42191;47.562;9.686;2022-08-01T10:12:22;97027.00;;;29.10
56286;BMP180;42191;47.562;9.686;2022-08-01T10:14:51;97032.00;;;29.10
56286;BMP180;42191;47.562;9.686;2022-08-01T10:17:24;97031.00;;;29.20
56286;BMP180;42191;47.562;9.686;2022-08-01T10:19:51;97023.00;;;29.20
56286;BMP180;42191;47.562;9.686;2022-08-01T10:22:23;97026.00;;;29.30
56286;BMP180;42191;47.562;9.686;2022-08-01T10:24:54;97025.00;;;29.30
56286;BMP180;42191;47.562;9.686;2022-08-01T10:27:21;97023.00;;;29.40
56286;BMP180;42191;47.562;9.686;2022-08-01T10:29:59;97010.00;;;29.50
56286;BMP180;42191;47.562;9.686;2022-08-01T10:32:34;97015.00;;;29.50
56286;BMP180;42191;47.562;9.686;2022-08-01T10:35:02;97015.00;;;29.60
56286;BMP180;42191;47.562;9.686;2022-08-01T10:37:29;97012.00;;;29.60
56286;BMP180;42191;47.562;9.686;2022-08-01T10:39:55;97017.00;;;29.70
56286;BMP180;42191;47.562;9.686;2022-08-01T10:42:22;97014.00;;;29.80
56286;BMP180;42191;47.562;9.686;2022-08-01T10:44:49;97012.00;;;29.80
56286;BMP180;42191;47.562;9.686;2022-08-01T10:47:23;97009.00;;;29.90
56286;BMP180;42191;47.562;9.686;2022-08-01T10:50:03;97009.00;;;29.90
56286;BMP180;42191;47.562;9.686;2022-08-01T10:52:30;97010.00;;;30.00
56286;BMP180;42191;47.562;9.686;2022-08-01T10:55:09;97014.00;;;30.00
56286;BMP180;42191;47.562;9.686;2022-08-01T10:57:48;97012.00;;;30.10
56286;BMP180;42191;47.562;9.686;2022-08-01T11:00:19;97001.00;;;30.10
56286;BMP180;42191;47.562;9.686;2022-08-01T11:02:58;96992.00;;;30.10
56286;BMP180;42191;47.562;9.686;2022-08-01T11:05:28;96998.00;;;30.20
56286;BMP180;42191;47.562;9.686;2022-08-01T11:07:56;96990.00;;;30.20
56286;BMP180;42191;47.562;9.686;2022-08-01T11:13:02;96986.00;;;30.40
56286;BMP180;42191;47.562;9.686;2022-08-01T11:15:33;96985.00;;;30.40
56286;BMP180;42191;47.562;9.686;2022-08-01T11:18:02;96984.00;;;30.50
56286;BMP180;42191;47.562;9.686;2022-08-01T11:20:31;96981.00;;;30.50
56286;BMP180;42191;47.562;9.686;2022-08-01T11:28:18;96972.00;;;30.70
56286;BMP180;42191;47.562;9.686;2022-08-01T11:39:10;96969.00;;;30.90
56286;BMP180;42191;47.562;9.686;2022-08-01T11:41:37;96969.00;;;31.00
56286;BMP180;42191;47.562;9.686;2022-08-01T11:46:54;96958.00;;;31.00
56286;BMP180;42191;47.562;9.686;2022-08-01T11:51:59;96955.00;;;31.10
56286;BMP180;42191;47.562;9.686;2022-08-01T11:54:31;96957.00;;;31.10
56286;BMP180;42191;47.562;9.686;2022-08-01T11:56:59;96961.00;;;31.20
56286;BMP180;42191;47.562;9.686;2022-08-01T11:59:26;96964.00;;;31.20
56286;BMP180;42191;47.562;9.686;2022-08-01T12:01:52;96952.00;;;31.30
56286;BMP180;42191;47.562;9.686;2022-08-01T12:04:19;96955.00;;;31.40
56286;BMP180;42191;47.562;9.686;2022-08-01T12:06:46;96957.00;;;31.40
56286;BMP180;42191;47.562;9.686;2022-08-01T12:09:16;96949.00;;;31.50
56286;BMP180;42191;47.562;9.686;2022-08-01T12:11:43;96952.00;;;31.60
56286;BMP180;42191;47.562;9.686;2022-08-01T12:14:09;96938.00;;;31.70
56286;BMP180;42191;47.562;9.686;2022-08-01T12:16:36;96933.00;;;31.70
56286;BMP180;42191;47.562;9.686;2022-08-01T12:19:03;96942.00;;;31.80
56286;BMP180;42191;47.562;9.686;2022-08-01T12:21:29;96934.00;;;31.80
56286;BMP180;42191;47.562;9.686;2022-08-01T12:24:02;96938.00;;;31.80
56286;BMP180;42191;47.562;9.686;2022-08-01T12:26:41;96931.00;;;31.90
56286;BMP180;42191;47.562;9.686;2022-08-01T12:29:08;96936.00;;;32.00
56286;BMP180;42191;47.562;9.686;2022-08-01T12:31:34;96935.00;;;32.10
56286;BMP180;42191;47.562;9.686;2022-08-01T12:34:29;96926.00;;;32.10
56286;BMP180;42191;47.562;9.686;2022-08-01T12:36:58;96921.00;;;32.20
56286;BMP180;42191;47.562;9.686;2022-08-01T12:39:34;96914.00;;;32.30
56286;BMP180;42191;47.562;9.686;2022-08-01T12:42:01;96916.00;;;32.30
56286;BMP180;42191;47.562;9.686;2022-08-01T12:44:29;96917.00;;;32.40
56286;BMP180;42191;47.562;9.686;2022-08-01T12:46:56;96915.00;;;32.40
56286;BMP180;42191;47.562;9.686;2022-08-01T12:49:22;96909.00;;;32.50
56286;BMP180;42191;47.562;9.686;2022-08-01T12:51:50;96910.00;;;32.50
56286;BMP180;42191;47.562;9.686;2022-08-01T12:54:17;96904.00;;;32.60
56286;BMP180;42191;47.562;9.686;2022-08-01T12:56:43;96907.00;;;32.60
56286;BMP180;42191;47.562;9.686;2022-08-01T12:59:24;96904.00;;;32.70
56286;BMP180;42191;47.562;9.686;2022-08-01T13:01:54;96899.00;;;32.70
56286;BMP180;42191;47.562;9.686;2022-08-01T13:04:21;96900.00;;;32.80
56286;BMP180;42191;47.562;9.686;2022-08-01T13:06:52;96904.00;;;32.80
56286;BMP180;42191;47.562;9.686;2022-08-01T13:09:19;96895.00;;;32.80
56286;BMP180;42191;47.562;9.686;2022-08-01T13:11:45;96896.00;;;32.80
56286;BMP180;42191;47.562;9.686;2022-08-01T13:14:29;96893.00;;;32.90
56286;BMP180;42191;47.562;9.686;2022-08-01T13:16:55;96883.00;;;33.10
56286;BMP180;42191;47.562;9.686;2022-08-01T13:19:40;96881.00;;;33.40
56286;BMP180;42191;47.562;9.686;2022-08-01T13:22:06;96883.00;;;33.80
56286;BMP180;42191;47.562;9.686;2022-08-01T13:24:33;96872.00;;;34.30
56286;BMP180;42191;47.562;9.686;2022-08-01T13:27:00;96873.00;;;34.90
56286;BMP180;42191;47.562;9.686;2022-08-01T13:29:34;96871.00;;;35.60
56286;BMP180;42191;47.562;9.686;2022-08-01T13:34:39;96871.00;;;37.20
56286;BMP180;42191;47.562;9.686;2022-08-01T13:37:05;96875.00;;;38.00
56286;BMP180;42191;47.562;9.686;2022-08-01T13:39:31;96871.00;;;38.80
56286;BMP180;42191;47.562;9.686;2022-08-01T13:42:10;96872.00;;;39.70
56286;BMP180;42191;47.562;9.686;2022-08-01T13:44:36;96868.00;;;40.40
56286;BMP180;42191;47.562;9.686;2022-08-01T13:47:04;96878.00;;;41.00
56286;BMP180;42191;47.562;9.686;2022-08-01T13:49:30;96873.00;;;41.50
56286;BMP180;42191;47.562;9.686;2022-08-01T13:51:57;96867.00;;;42.00
56286;BMP180;42191;47.562;9.686;2022-08-01T13:54:23;96870.00;;;42.50
56286;BMP180;42191;47.562;9.686;2022-08-01T13:56:50;96870.00;;;42.90
56286;BMP180;42191;47.562;9.686;2022-08-01T13:59:17;96874.00;;;43.30
56286;BMP180;42191;47.562;9.686;2022-08-01T14:01:43;96872.00;;;43.60
56286;BMP180;42191;47.562;9.686;2022-08-01T14:04:09;96871.00;;;43.90
56286;BMP180;42191;47.562;9.686;2022-08-01T14:06:35;96878.00;;;44.30
56286;BMP180;42191;47.562;9.686;2022-08-01T14:09:02;96871.00;;;44.50
56286;BMP180;42191;47.562;9.686;2022-08-01T14:11:29;96865.00;;;44.80
56286;BMP180;42191;47.562;9.686;2022-08-01T14:13:55;96870.00;;;45.10
56286;BMP180;42191;47.562;9.686;2022-08-01T14:16:21;96872.00;;;45.40
56286;BMP180;42191;47.562;9.686;2022-08-01T14:18:47;96866.00;;;45.50
56286;BMP180;42191;47.562;9.686;2022-08-01T14:21:13;96868.00;;;45.70
56286;BMP180;42191;47.562;9.686;2022-08-01T14:23:40;96874.00;;;45.80
56286;BMP180;42191;47.562;9.686;2022-08-01T14:26:09;96875.00;;;45.90
56286;BMP180;42191;47.562;9.686;2022-08-01T14:28:36;96866.00;;;45.90
56286;BMP180;42191;47.562;9.686;2022-08-01T14:31:03;96872.00;;;46.10
56286;BMP180;42191;47.562;9.686;2022-08-01T14:33:29;96872.00;;;46.30
56286;BMP180;42191;47.562;9.686;2022-08-01T14:35:56;96871.00;;;46.50
56286;BMP180;42191;47.562;9.686;2022-08-01T14:38:22;96866.00;;;46.80
56286;BMP180;42191;47.562;9.686;2022-08-01T14:40:49;96871.00;;;47.00
56286;BMP180;42191;47.562;9.686;2022-08-01T14:43:17;96861.00;;;47.30
56286;BMP180;42191;47.562;9.686;2022-08-01T14:45:44;96870.00;;;47.40
56286;BMP180;42191;47.562;9.686;2022-08-01T14:48:10;96862.00;;;47.50
56286;BMP180;42191;47.562;9.686;2022-08-01T14:50:36;96868.00;;;47.60
56286;BMP180;42191;47.562;9.686;2022-08-01T14:53:03;96861.00;;;47.60
56286;BMP180;42191;47.562;9.686;2022-08-01T14:55:29;96863.00;;;47.70
56286;BMP180;42191;47.562;9.686;2022-08-01T14:57:55;96858.00;;;47.80